Time;durP1;ratioP1;P1;durP2;ratioP2;P2;SDS_P1;SDS_P2;PMS_P1;PMS_P2;Temp;Humidity;BMP_temperature;BMP_pressure;BME280_temperature;BME280_humidity;BME280_pressure;Samples;Min_cycle;Max_cycle;Signal;HPM_P1;HPM_P2
2023/08/05 00:00:28;;;;;;;8.63;3.95;;;;;;;;;;5024554;28;20398;-73
2023/08/05 00:02:54;;;;;;;9.27;4.30;;;;;;;;;;5024257;28;20037;-73
2023/08/05 00:05:20;;;;;;;14.43;4.60;;;;;;;;;;5021594;28;20050;-73
2023/08/05 00:07:46;;;;;;;11.32;4.93;;;;;;;;;;5022225;28;20475;-73
2023/08/05 00:10:12;;;;;;;9.27;4.35;;;;;;;;;;5025107;28;20040;-73
2023/08/05 00:12:39;;;;;;;8.27;4.68;;;;;;;;;;5023007;28;20406;-73
2023/08/05 00:15:05;;;;;;;9.38;3.70;;;;;;;;;;5022501;28;20045;-73
2023/08/05 00:17:31;;;;;;;6.07;3.65;;;;;;;;;;5022921;28;20647;-72
2023/08/05 00:19:57;;;;;;;4.43;3.38;;;;;;;;;;5021992;28;20030;-72
2023/08/05 00:22:23;;;;;;;10.52;3.47;;;;;;;;;;5025129;28;20694;-72
2023/08/05 00:24:49;;;;;;;6.60;3.55;;;;;;;;;;5023413;28;20057;-72
2023/08/05 00:27:15;;;;;;;15.00;3.78;;;;;;;;;;5022245;28;20581;-73
2023/08/05 00:29:41;;;;;;;6.72;3.70;;;;;;;;;;5021392;28;20089;-73
2023/08/05 00:32:07;;;;;;;8.82;3.53;;;;;;;;;;5019827;28;20368;-72
2023/08/05 00:34:34;;;;;;;4.97;3.50;;;;;;;;;;5040156;28;20487;-73
2023/08/05 00:37:00;;;;;;;5.88;3.88;;;;;;;;;;5021064;28;20024;-72
2023/08/05 00:39:26;;;;;;;5.65;3.70;;;;;;;;;;5025151;28;20037;-73
2023/08/05 00:41:52;;;;;;;7.70;4.20;;;;;;;;;;5004875;28;20124;-72
2023/08/05 00:44:18;;;;;;;6.07;4.15;;;;;;;;;;5023674;28;20380;-72
2023/08/05 00:46:44;;;;;;;7.88;3.95;;;;;;;;;;5024226;28;20040;-72
2023/08/05 00:49:10;;;;;;;7.15;4.53;;;;;;;;;;5024290;28;20038;-73
2023/08/05 00:51:36;;;;;;;7.63;4.63;;;;;;;;;;5021652;28;20037;-72
2023/08/05 00:54:02;;;;;;;8.02;3.85;;;;;;;;;;5023330;28;20041;-72
2023/08/05 00:56:29;;;;;;;6.63;3.55;;;;;;;;;;5022966;28;20032;-72
2023/08/05 00:58:55;;;;;;;6.30;3.75;;;;;;;;;;5022299;28;20126;-74
2023/08/05 01:01:21;;;;;;;10.30;4.13;;;;;;;;;;5022388;28;20038;-73
2023/08/05 01:03:47;;;;;;;5.40;3.17;;;;;;;;;;5036776;28;20398;-73
2023/08/05 01:06:14;;;;;;;4.82;3.47;;;;;;;;;;5036163;28;20034;-73
2023/08/05 01:08:41;;;;;;;6.40;4.00;;;;;;;;;;5020649;28;20487;-73
2023/08/05 01:11:07;;;;;;;9.57;3.70;;;;;;;;;;5023500;28;20167;-73
2023/08/05 01:13:33;;;;;;;10.90;4.13;;;;;;;;;;5022086;28;20127;-73
2023/08/05 01:15:59;;;;;;;9.55;3.78;;;;;;;;;;5019342;28;20035;-73
2023/08/05 01:18:26;;;;;;;8.05;3.70;;;;;;;;;;5021200;28;20037;-73
2023/08/05 01:20:54;;;;;;;13.68;4.15;;;;;;;;;;5022868;28;20444;-73
2023/08/05 01:23:28;;;;;;;9.35;4.05;;;;;;;;;;5019199;28;20463;-73
2023/08/05 01:25:54;;;;;;;14.75;5.22;;;;;;;;;;5021260;28;20542;-73
2023/08/05 01:28:21;;;;;;;6.45;4.03;;;;;;;;;;5023053;28;20051;-73
2023/08/05 01:30:48;;;;;;;6.13;4.00;;;;;;;;;;5024461;28;20060;-73
2023/08/05 01:33:15;;;;;;;10.48;3.75;;;;;;;;;;5022473;28;20033;-73
2023/08/05 01:35:47;;;;;;;7.95;5.05;;;;;;;;;;5022974;28;20116;-73
2023/08/05 01:38:13;;;;;;;11.68;4.55;;;;;;;;;;5021354;28;20120;-73
2023/08/05 01:40:39;;;;;;;7.05;3.92;;;;;;;;;;5022099;28;20428;-73
2023/08/05 01:43:05;;;;;;;9.02;4.28;;;;;;;;;;5021178;28;20036;-73
2023/08/05 01:45:31;;;;;;;7.93;4.75;;;;;;;;;;5023249;28;20372;-73
2023/08/05 01:47:57;;;;;;;10.10;4.85;;;;;;;;;;5018073;28;20042;-73
2023/08/05 01:50:23;;;;;;;8.65;4.22;;;;;;;;;;5022809;28;20048;-73
2023/08/05 01:52:49;;;;;;;5.03;3.70;;;;;;;;;;5024505;28;20036;-73
2023/08/05 01:55:15;;;;;;;6.55;4.88;;;;;;;;;;5024105;28;20037;-73
2023/08/05 01:57:41;;;;;;;12.05;4.68;;;;;;;;;;5023514;28;20055;-73
2023/08/05 02:00:08;;;;;;;11.57;4.85;;;;;;;;;;5022334;28;20037;-73
2023/08/05 02:02:34;;;;;;;5.35;4.35;;;;;;;;;;5026371;28;20037;-73
2023/08/05 02:05:00;;;;;;;8.00;4.80;;;;;;;;;;5028020;28;20053;-74
2023/08/05 02:07:27;;;;;;;19.55;5.43;;;;;;;;;;5027839;28;20037;-73
2023/08/05 02:09:53;;;;;;;12.73;5.15;;;;;;;;;;5022493;28;20049;-73
2023/08/05 02:12:19;;;;;;;8.57;4.75;;;;;;;;;;5024919;28;20030;-73
2023/08/05 02:14:45;;;;;;;9.23;5.97;;;;;;;;;;5026138;28;20579;-73
2023/08/05 02:17:11;;;;;;;7.07;5.78;;;;;;;;;;5022424;28;20052;-73
2023/08/05 02:19:37;;;;;;;10.95;5.28;;;;;;;;;;5026534;28;20038;-73
2023/08/05 02:22:03;;;;;;;12.25;5.93;;;;;;;;;;5026317;28;20029;-72
2023/08/05 02:24:29;;;;;;;9.90;5.45;;;;;;;;;;5026643;28;20033;-72
2023/08/05 02:26:55;;;;;;;7.22;5.40;;;;;;;;;;5021745;28;20517;-74
2023/08/05 02:29:21;;;;;;;10.77;5.72;;;;;;;;;;5020722;28;20037;-76
2023/08/05 02:31:47;;;;;;;9.85;5.40;;;;;;;;;;5024644;28;20044;-76
2023/08/05 02:34:13;;;;;;;7.95;5.57;;;;;;;;;;5025288;28;20483;-76
2023/08/05 02:36:39;;;;;;;10.77;5.45;;;;;;;;;;5024923;28;20048;-75
2023/08/05 02:39:05;;;;;;;11.10;5.93;;;;;;;;;;5022686;28;20061;-74
2023/08/05 02:41:31;;;;;;;7.97;5.22;;;;;;;;;;5022100;28;20041;-75
2023/08/05 02:43:57;;;;;;;9.70;5.45;;;;;;;;;;5023940;28;20048;-74
2023/08/05 02:46:23;;;;;;;8.65;5.32;;;;;;;;;;5025344;28;20494;-74
2023/08/05 02:48:49;;;;;;;12.85;5.32;;;;;;;;;;5019412;28;20088;-75
2023/08/05 02:51:15;;;;;;;9.10;6.03;;;;;;;;;;5025089;28;20120;-74
2023/08/05 02:53:41;;;;;;;10.90;5.97;;;;;;;;;;5027007;28;20494;-75
2023/08/05 02:56:07;;;;;;;6.72;5.75;;;;;;;;;;5024209;28;20041;-74
2023/08/05 02:58:33;;;;;;;6.55;4.50;;;;;;;;;;5036828;28;20488;-75
2023/08/05 03:01:06;;;;;;;7.13;5.65;;;;;;;;;;5025793;28;20072;-74
2023/08/05 03:03:32;;;;;;;7.38;5.18;;;;;;;;;;5022618;28;20104;-73
2023/08/05 03:05:58;;;;;;;12.13;5.55;;;;;;;;;;5025107;28;20120;-77
2023/08/05 03:08:24;;;;;;;8.38;5.63;;;;;;;;;;5041038;28;20125;-76
2023/08/05 03:11:00;;;;;;;7.20;5.57;;;;;;;;;;5022394;28;20466;-76
2023/08/05 03:13:26;;;;;;;9.02;5.38;;;;;;;;;;5035726;28;20030;-75
2023/08/05 03:15:53;;;;;;;9.77;5.88;;;;;;;;;;5025218;28;20030;-77
2023/08/05 03:18:19;;;;;;;8.63;5.63;;;;;;;;;;5021957;28;20503;-77
2023/08/05 03:20:45;;;;;;;8.57;5.47;;;;;;;;;;5021437;28;20063;-73
2023/08/05 03:23:11;;;;;;;9.50;5.63;;;;;;;;;;5025801;28;20057;-74
2023/08/05 03:25:37;;;;;;;12.10;6.28;;;;;;;;;;5022720;28;21873;-73
2023/08/05 03:28:03;;;;;;;10.05;5.47;;;;;;;;;;5026660;28;20037;-73
2023/08/05 03:30:29;;;;;;;11.07;6.10;;;;;;;;;;5022273;28;20099;-75
2023/08/05 03:32:55;;;;;;;11.07;6.15;;;;;;;;;;5025290;28;20047;-75
2023/08/05 03:35:21;;;;;;;12.40;6.10;;;;;;;;;;5025892;28;20033;-75
2023/08/05 03:37:47;;;;;;;10.65;5.20;;;;;;;;;;5025913;28;20470;-75
2023/08/05 03:40:14;;;;;;;9.35;5.22;;;;;;;;;;5026540;28;20045;-75
2023/08/05 03:42:40;;;;;;;7.10;5.50;;;;;;;;;;5020424;28;20112;-75
2023/08/05 03:45:06;;;;;;;7.88;5.38;;;;;;;;;;5022256;28;20041;-73
2023/08/05 03:47:33;;;;;;;9.93;5.30;;;;;;;;;;5036827;28;20159;-73
2023/08/05 03:49:59;;;;;;;7.30;5.00;;;;;;;;;;5024726;28;20088;-74
2023/08/05 03:52:26;;;;;;;19.27;9.70;;;;;;;;;;5023178;28;20029;-74
2023/08/05 03:54:52;;;;;;;8.80;5.47;;;;;;;;;;5024777;28;20088;-74
2023/08/05 03:57:18;;;;;;;9.38;4.95;;;;;;;;;;5023993;28;20510;-74
2023/08/05 03:59:46;;;;;;;15.00;5.57;;;;;;;;;;5023091;28;20061;-75
2023/08/05 04:02:14;;;;;;;9.20;4.90;;;;;;;;;;5019274;28;21561;-74
2023/08/05 04:04:42;;;;;;;8.48;4.80;;;;;;;;;;5017302;28;20030;-74
2023/08/05 04:07:08;;;;;;;8.02;4.75;;;;;;;;;;5023254;28;20083;-74
2023/08/05 04:09:36;;;;;;;8.05;4.82;;;;;;;;;;5024361;28;22047;-74
2023/08/05 04:12:04;;;;;;;7.30;4.82;;;;;;;;;;5017527;28;20030;-74
2023/08/05 04:14:30;;;;;;;10.73;5.43;;;;;;;;;;5024399;28;20103;-74
2023/08/05 04:16:56;;;;;;;7.25;5.30;;;;;;;;;;5019841;28;20490;-74
2023/08/05 04:19:23;;;;;;;7.35;4.82;;;;;;;;;;5023681;28;20033;-74
2023/08/05 04:21:52;;;;;;;9.10;5.00;;;;;;;;;;5022816;28;20467;-75
2023/08/05 04:24:21;;;;;;;8.40;5.32;;;;;;;;;;5021151;28;20057;-73
2023/08/05 04:26:48;;;;;;;14.07;5.32;;;;;;;;;;5021570;28;20025;-74
2023/08/05 04:29:17;;;;;;;10.85;5.75;;;;;;;;;;5023530;28;20041;-74
2023/08/05 04:31:43;;;;;;;10.70;5.35;;;;;;;;;;5023345;28;20045;-74
2023/08/05 04:34:09;;;;;;;8.23;5.05;;;;;;;;;;5020137;28;20029;-74
2023/08/05 04:36:35;;;;;;;11.02;5.50;;;;;;;;;;5023902;28;20036;-73
2023/08/05 04:39:03;;;;;;;11.10;6.20;;;;;;;;;;5022886;28;20033;-73
2023/08/05 04:41:29;;;;;;;7.28;5.38;;;;;;;;;;5023520;28;20041;-73
2023/08/05 04:43:56;;;;;;;10.52;6.00;;;;;;;;;;5016253;28;20117;-73
2023/08/05 04:46:22;;;;;;;8.02;5.15;;;;;;;;;;5023156;28;20104;-73
2023/08/05 04:48:48;;;;;;;11.45;5.95;;;;;;;;;;5020345;28;20029;-73
2023/08/05 04:51:14;;;;;;;10.32;5.47;;;;;;;;;;5022697;28;20073;-74
2023/08/05 04:53:40;;;;;;;10.65;5.40;;;;;;;;;;5025063;28;20077;-74
2023/08/05 04:56:06;;;;;;;10.13;5.22;;;;;;;;;;5021669;28;20091;-74
2023/08/05 04:58:32;;;;;;;10.13;5.10;;;;;;;;;;5023107;28;20035;-73
2023/08/05 05:00:58;;;;;;;9.32;4.88;;;;;;;;;;5020717;28;20625;-73
2023/08/05 05:03:25;;;;;;;14.30;5.50;;;;;;;;;;5023702;28;20041;-74
2023/08/05 05:05:51;;;;;;;9.80;5.75;;;;;;;;;;5024121;28;20037;-74
2023/08/05 05:08:17;;;;;;;12.25;5.57;;;;;;;;;;5023723;28;20087;-74
2023/08/05 05:10:46;;;;;;;7.18;4.85;;;;;;;;;;5021698;28;20108;-74
2023/08/05 05:13:13;;;;;;;7.07;4.82;;;;;;;;;;5023766;28;20044;-74
2023/08/05 05:15:39;;;;;;;6.90;5.05;;;;;;;;;;5021226;28;20026;-74
2023/08/05 05:18:05;;;;;;;9.32;4.88;;;;;;;;;;5023561;28;20124;-73
2023/08/05 05:20:31;;;;;;;7.60;5.20;;;;;;;;;;5023354;28;20129;-74
2023/08/05 05:22:57;;;;;;;9.45;4.38;;;;;;;;;;5019029;28;20040;-74
2023/08/05 05:25:23;;;;;;;8.98;4.15;;;;;;;;;;5021572;28;20037;-73
2023/08/05 05:27:49;;;;;;;5.78;4.75;;;;;;;;;;5021923;28;20116;-73
2023/08/05 05:30:15;;;;;;;7.32;4.20;;;;;;;;;;5019636;28;20065;-74
2023/08/05 05:32:41;;;;;;;9.10;4.13;;;;;;;;;;5037527;28;20041;-73
2023/08/05 05:35:08;;;;;;;7.07;3.92;;;;;;;;;;5017924;28;20090;-74
2023/08/05 05:37:34;;;;;;;8.23;4.22;;;;;;;;;;5018838;28;20371;-73
2023/08/05 05:40:00;;;;;;;6.00;3.78;;;;;;;;;;5023484;28;20043;-74
2023/08/05 05:42:26;;;;;;;10.98;3.78;;;;;;;;;;5020908;28;20120;-74
2023/08/05 05:44:53;;;;;;;5.40;3.53;;;;;;;;;;5020381;28;20026;-74
2023/08/05 05:47:20;;;;;;;4.43;3.47;;;;;;;;;;5020691;28;20068;-74
2023/08/05 05:49:46;;;;;;;6.22;3.75;;;;;;;;;;5022749;28;20129;-73
2023/08/05 05:52:15;;;;;;;6.20;3.40;;;;;;;;;;5020711;28;20038;-73
2023/08/05 05:54:41;;;;;;;7.55;3.80;;;;;;;;;;5022936;28;20029;-74
2023/08/05 05:57:08;;;;;;;6.25;3.20;;;;;;;;;;5022325;28;20041;-73
2023/08/05 05:59:34;;;;;;;8.95;3.10;;;;;;;;;;5021444;28;20028;-73
2023/08/05 06:02:00;;;;;;;8.00;3.08;;;;;;;;;;5016367;28;20061;-72
2023/08/05 06:04:28;;;;;;;4.55;2.70;;;;;;;;;;5016725;28;20103;-73
2023/08/05 06:06:54;;;;;;;4.93;2.97;;;;;;;;;;5016452;28;20037;-73
2023/08/05 06:09:21;;;;;;;5.70;2.33;;;;;;;;;;5019150;28;20025;-74
2023/08/05 06:11:47;;;;;;;12.13;8.27;;;;;;;;;;5021525;28;20049;-75
2023/08/05 06:14:13;;;;;;;7.88;4.90;;;;;;;;;;5035113;28;20030;-73
2023/08/05 06:16:39;;;;;;;5.97;2.50;;;;;;;;;;5025759;28;20396;-73
2023/08/05 06:19:05;;;;;;;4.05;3.13;;;;;;;;;;5026019;28;20487;-73
2023/08/05 06:21:31;;;;;;;3.72;2.08;;;;;;;;;;5024995;28;20121;-71
2023/08/05 06:23:57;;;;;;;7.57;2.50;;;;;;;;;;5039061;28;20029;-72
2023/08/05 06:26:23;;;;;;;6.32;2.10;;;;;;;;;;5032974;28;20114;-72
2023/08/05 06:28:50;;;;;;;4.15;2.15;;;;;;;;;;5037254;28;20454;-72
2023/08/05 06:31:16;;;;;;;6.60;2.17;;;;;;;;;;5029287;28;20156;-72
2023/08/05 06:33:42;;;;;;;5.00;2.05;;;;;;;;;;5024904;28;20084;-71
2023/08/05 06:36:08;;;;;;;3.20;1.98;;;;;;;;;;5026770;28;20627;-71
2023/08/05 06:38:34;;;;;;;4.47;1.88;;;;;;;;;;5019937;28;20033;-72
2023/08/05 06:41:00;;;;;;;4.22;2.03;;;;;;;;;;5020993;28;20080;-75
2023/08/05 06:43:26;;;;;;;5.40;2.30;;;;;;;;;;5040828;28;20121;-72
2023/08/05 06:45:52;;;;;;;9.70;2.00;;;;;;;;;;5023960;28;20033;-72
2023/08/05 06:48:18;;;;;;;5.10;1.77;;;;;;;;;;5025185;28;20044;-72
2023/08/05 06:50:44;;;;;;;4.43;1.80;;;;;;;;;;5022217;28;20474;-72
2023/08/05 06:53:10;;;;;;;9.98;4.72;;;;;;;;;;5023601;28;20121;-72
2023/08/05 06:55:36;;;;;;;8.73;3.63;;;;;;;;;;5025583;28;20112;-71
2023/08/05 06:58:03;;;;;;;6.63;2.65;;;;;;;;;;5024931;28;20030;-71
2023/08/05 07:00:29;;;;;;;7.15;1.85;;;;;;;;;;5023069;28;20049;-72
2023/08/05 07:02:57;;;;;;;5.47;1.95;;;;;;;;;;5035067;28;20041;-74
2023/08/05 07:05:23;;;;;;;4.63;2.05;;;;;;;;;;5025189;28;20038;-73
2023/08/05 07:07:49;;;;;;;4.10;2.63;;;;;;;;;;5024724;28;20033;-75
2023/08/05 07:10:16;;;;;;;3.22;1.80;;;;;;;;;;5023873;28;20044;-73
2023/08/05 07:12:42;;;;;;;3.65;1.98;;;;;;;;;;5021778;28;20044;-73
2023/08/05 07:15:08;;;;;;;4.72;1.88;;;;;;;;;;5025466;28;20447;-72
2023/08/05 07:17:35;;;;;;;6.65;2.00;;;;;;;;;;5028670;28;20029;-75
2023/08/05 07:20:01;;;;;;;2.85;1.75;;;;;;;;;;5029347;28;20026;-75
2023/08/05 07:22:27;;;;;;;5.47;2.00;;;;;;;;;;5027190;28;20061;-74
2023/08/05 07:24:54;;;;;;;2.75;1.60;;;;;;;;;;5027943;28;20392;-74
2023/08/05 07:27:20;;;;;;;3.58;1.80;;;;;;;;;;5029503;28;20044;-74
2023/08/05 07:29:46;;;;;;;2.85;1.70;;;;;;;;;;5029013;28;20033;-76
2023/08/05 07:32:12;;;;;;;5.20;1.60;;;;;;;;;;5028983;28;20519;-76
2023/08/05 07:34:39;;;;;;;4.72;1.95;;;;;;;;;;5028489;28;20033;-75
2023/08/05 07:37:05;;;;;;;3.72;1.83;;;;;;;;;;5023351;28;20072;-76
2023/08/05 07:39:34;;;;;;;9.45;2.10;;;;;;;;;;5029352;28;20091;-75
2023/08/05 07:42:03;;;;;;;5.85;2.00;;;;;;;;;;5018871;28;20102;-75
2023/08/05 07:44:33;;;;;;;22.45;12.85;;;;;;;;;;5028548;28;20495;-75
2023/08/05 07:46:59;;;;;;;10.07;4.57;;;;;;;;;;5029705;28;20112;-75
2023/08/05 07:49:26;;;;;;;4.60;2.10;;;;;;;;;;5040071;28;20060;-76
2023/08/05 07:51:53;;;;;;;6.25;2.05;;;;;;;;;;5024304;28;20033;-76
2023/08/05 07:54:20;;;;;;;2.42;1.55;;;;;;;;;;5024899;28;20037;-75
2023/08/05 07:56:46;;;;;;;5.47;1.63;;;;;;;;;;5022425;28;20125;-74
2023/08/05 07:59:13;;;;;;;5.43;1.95;;;;;;;;;;5023380;28;20041;-74
2023/08/05 08:01:42;;;;;;;9.18;2.55;;;;;;;;;;5039926;28;20038;-73
2023/08/05 08:04:13;;;;;;;3.58;1.75;;;;;;;;;;5024177;28;20471;-72
2023/08/05 08:06:39;;;;;;;4.60;1.90;;;;;;;;;;5024223;28;20499;-74
2023/08/05 08:09:05;;;;;;;4.72;1.70;;;;;;;;;;5023230;28;20088;-73
2023/08/05 08:11:32;;;;;;;6.95;3.53;;;;;;;;;;5024104;28;20426;-72
2023/08/05 08:13:58;;;;;;;6.40;1.90;;;;;;;;;;5026246;28;20482;-72
2023/08/05 08:16:24;;;;;;;6.57;2.00;;;;;;;;;;5028395;28;20038;-72
2023/08/05 08:18:50;;;;;;;6.90;1.73;;;;;;;;;;5024100;28;20022;-72
2023/08/05 08:21:16;;;;;;;4.50;1.50;;;;;;;;;;5035433;28;20041;-72
2023/08/05 08:23:42;;;;;;;2.83;1.60;;;;;;;;;;5020973;28;20102;-72
2023/08/05 08:26:08;;;;;;;7.60;1.92;;;;;;;;;;5028249;28;20049;-73
2023/08/05 08:28:34;;;;;;;6.80;1.60;;;;;;;;;;5028366;28;20036;-72
2023/08/05 08:31:00;;;;;;;3.50;1.38;;;;;;;;;;5026273;28;20053;-73
2023/08/05 08:33:26;;;;;;;6.28;2.20;;;;;;;;;;5024386;28;20043;-71
2023/08/05 08:35:52;;;;;;;4.30;1.50;;;;;;;;;;5024033;28;20033;-71
2023/08/05 08:38:19;;;;;;;8.75;1.92;;;;;;;;;;5024908;28;20108;-72
2023/08/05 08:40:48;;;;;;;4.28;1.60;;;;;;;;;;5028750;28;20116;-72
2023/08/05 08:43:16;;;;;;;4.57;1.95;;;;;;;;;;5027168;28;20021;-72
2023/08/05 08:45:42;;;;;;;5.65;1.52;;;;;;;;;;5026675;28;20467;-72
2023/08/05 08:48:09;;;;;;;2.95;1.40;;;;;;;;;;5021216;28;20471;-70
2023/08/05 08:50:36;;;;;;;2.88;1.50;;;;;;;;;;5024446;28;20029;-73
2023/08/05 08:53:02;;;;;;;4.45;1.48;;;;;;;;;;5027381;28;20034;-73
2023/08/05 08:55:30;;;;;;;6.32;2.22;;;;;;;;;;5042364;28;20068;-72
2023/08/05 08:57:56;;;;;;;3.55;1.63;;;;;;;;;;5028428;28;20033;-73
2023/08/05 09:00:22;;;;;;;4.80;1.60;;;;;;;;;;5028120;28;20037;-71
2023/08/05 09:02:49;;;;;;;5.80;1.90;;;;;;;;;;5026973;28;20029;-73
2023/08/05 09:05:15;;;;;;;7.55;1.98;;;;;;;;;;5027202;28;20031;-73
2023/08/05 09:07:41;;;;;;;7.55;2.88;;;;;;;;;;5025441;28;20057;-71
2023/08/05 09:10:08;;;;;;;5.43;3.15;;;;;;;;;;5028020;28;20072;-72
2023/08/05 09:12:34;;;;;;;4.40;1.80;;;;;;;;;;5027277;28;20034;-72
2023/08/05 09:15:00;;;;;;;3.85;1.30;;;;;;;;;;5024628;28;20033;-71
2023/08/05 09:17:26;;;;;;;5.60;1.80;;;;;;;;;;5015277;28;20156;-73
2023/08/05 09:19:53;;;;;;;7.25;1.95;;;;;;;;;;5021000;28;20033;-73
2023/08/05 09:22:19;;;;;;;5.13;1.30;;;;;;;;;;5019679;28;20309;-73
2023/08/05 09:24:45;;;;;;;3.88;1.33;;;;;;;;;;5019764;28;20068;-74
2023/08/05 09:27:11;;;;;;;7.88;1.50;;;;;;;;;;5023197;28;20100;-73
2023/08/05 09:29:37;;;;;;;11.20;6.20;;;;;;;;;;5021155;28;20037;-72
2023/08/05 09:32:04;;;;;;;16.65;9.40;;;;;;;;;;5022965;28;20084;-72
2023/08/05 09:34:34;;;;;;;4.03;2.08;;;;;;;;;;5021008;28;20395;-72
2023/08/05 09:37:00;;;;;;;4.22;1.65;;;;;;;;;;5023405;28;20083;-73
2023/08/05 09:39:30;;;;;;;6.18;1.65;;;;;;;;;;5007761;28;20088;-73
2023/08/05 09:41:56;;;;;;;5.82;1.73;;;;;;;;;;5027559;28;20115;-73
2023/08/05 09:44:22;;;;;;;8.60;1.60;;;;;;;;;;5025547;28;20526;-73
2023/08/05 09:46:49;;;;;;;3.28;1.60;;;;;;;;;;5020932;28;20033;-72
2023/08/05 09:49:17;;;;;;;4.35;1.60;;;;;;;;;;5024830;28;20485;-73
2023/08/05 09:51:44;;;;;;;3.42;1.70;;;;;;;;;;5024948;28;20034;-77
2023/08/05 09:54:13;;;;;;;3.08;1.45;;;;;;;;;;5024625;28;20033;-78
2023/08/05 09:56:40;;;;;;;3.08;1.40;;;;;;;;;;5013054;28;20025;-78
2023/08/05 09:59:07;;;;;;;5.55;1.63;;;;;;;;;;5024120;28;20038;-75
2023/08/05 10:01:35;;;;;;;2.22;1.55;;;;;;;;;;5021690;28;20037;-75
2023/08/05 10:04:01;;;;;;;2.13;1.10;;;;;;;;;;5021579;28;20040;-78
2023/08/05 10:06:28;;;;;;;4.28;1.92;;;;;;;;;;5039880;28;20025;-79
2023/08/05 10:08:55;;;;;;;5.20;3.28;;;;;;;;;;5032914;28;20104;-75
2023/08/05 10:11:21;;;;;;;2.35;1.70;;;;;;;;;;5025749;28;20077;-79
2023/08/05 10:13:48;;;;;;;4.55;2.38;;;;;;;;;;5021408;28;20083;-79
2023/08/05 10:16:14;;;;;;;3.17;1.58;;;;;;;;;;5021746;28;20108;-77
2023/08/05 10:18:40;;;;;;;5.43;1.48;;;;;;;;;;5024219;28;20502;-76
2023/08/05 10:21:09;;;;;;;3.25;1.30;;;;;;;;;;5034743;28;20033;-75
2023/08/05 10:23:35;;;;;;;4.75;1.52;;;;;;;;;;5024199;28;20065;-73
2023/08/05 10:26:02;;;;;;;3.50;1.50;;;;;;;;;;5023219;28;20034;-74
2023/08/05 10:28:34;;;;;;;3.47;1.58;;;;;;;;;;5026063;28;20738;-75
2023/08/05 10:31:04;;;;;;;2.33;1.48;;;;;;;;;;5024019;28;20057;-74
2023/08/05 10:33:30;;;;;;;3.70;1.60;;;;;;;;;;5023246;28;20523;-75
2023/08/05 10:36:03;;;;;;;6.85;1.60;;;;;;;;;;5027761;28;20418;-75
2023/08/05 10:38:41;;;;;;;4.05;1.77;;;;;;;;;;5016119;28;20542;-76
2023/08/05 10:41:07;;;;;;;5.15;2.00;;;;;;;;;;5036428;28;20088;-74
2023/08/05 10:43:40;;;;;;;9.40;2.00;;;;;;;;;;5019454;28;20511;-73
2023/08/05 10:46:06;;;;;;;6.10;2.67;;;;;;;;;;5026561;28;20034;-74
2023/08/05 10:49:04;;;;;;;3.28;1.50;;;;;;;;;;5024731;28;20036;-74
2023/08/05 10:51:33;;;;;;;2.28;1.35;;;;;;;;;;4998325;28;20468;-75
2023/08/05 10:53:59;;;;;;;3.63;1.63;;;;;;;;;;5040343;28;20057;-74
2023/08/05 10:56:29;;;;;;;3.97;1.58;;;;;;;;;;5026352;28;20506;-74
2023/08/05 10:58:55;;;;;;;6.82;1.98;;;;;;;;;;5023731;28;20030;-74
2023/08/05 11:01:21;;;;;;;2.72;1.55;;;;;;;;;;5041785;28;20045;-74
2023/08/05 11:03:56;;;;;;;5.18;1.65;;;;;;;;;;5023275;28;20080;-74
2023/08/05 11:06:23;;;;;;;6.50;1.90;;;;;;;;;;5023200;28;20044;-73
2023/08/05 11:08:49;;;;;;;3.47;1.40;;;;;;;;;;5023582;28;20287;-74
2023/08/05 11:11:15;;;;;;;2.45;1.75;;;;;;;;;;5024948;28;20041;-73
2023/08/05 11:13:43;;;;;;;6.47;2.10;;;;;;;;;;5023630;28;20049;-72
2023/08/05 11:16:10;;;;;;;6.75;1.83;;;;;;;;;;5024232;28;20037;-73
2023/08/05 11:18:37;;;;;;;15.85;8.75;;;;;;;;;;5023075;28;20033;-74
2023/08/05 11:21:05;;;;;;;8.00;4.50;;;;;;;;;;5024348;28;20079;-74
2023/08/05 11:23:32;;;;;;;5.45;2.97;;;;;;;;;;5024939;28;20040;-75
2023/08/05 11:25:59;;;;;;;4.00;1.90;;;;;;;;;;5026239;28;20076;-75
2023/08/05 11:28:25;;;;;;;3.63;1.90;;;;;;;;;;5025645;28;20030;-75
2023/08/05 11:30:53;;;;;;;2.85;1.50;;;;;;;;;;5028100;28;20474;-75
2023/08/05 11:33:19;;;;;;;6.43;1.90;;;;;;;;;;5023100;28;20266;-74
2023/08/05 11:35:46;;;;;;;5.20;2.20;;;;;;;;;;5026843;28;20052;-74
2023/08/05 11:38:22;;;;;;;4.43;2.20;;;;;;;;;;5034136;28;20021;-74
2023/08/05 11:40:49;;;;;;;3.60;1.67;;;;;;;;;;5022511;28;20417;-74
2023/08/05 11:43:16;;;;;;;3.35;2.15;;;;;;;;;;5024522;28;20428;-75
2023/08/05 11:45:43;;;;;;;9.95;4.78;;;;;;;;;;5026478;28;20537;-72
2023/08/05 11:48:22;;;;;;;5.85;2.85;;;;;;;;;;5024907;28;20037;-75
2023/08/05 11:50:49;;;;;;;4.63;1.88;;;;;;;;;;5020284;28;20029;-74
2023/08/05 11:53:16;;;;;;;5.97;1.90;;;;;;;;;;5016451;28;20042;-75
2023/08/05 11:55:42;;;;;;;4.70;1.83;;;;;;;;;;5020905;28;20048;-73
2023/08/05 11:58:13;;;;;;;5.10;2.42;;;;;;;;;;5023459;28;20489;-73
2023/08/05 12:00:43;;;;;;;4.75;2.10;;;;;;;;;;5023943;28;20056;-73
2023/08/05 12:03:10;;;;;;;4.50;1.83;;;;;;;;;;5024114;28;20270;-73
2023/08/05 12:05:36;;;;;;;3.33;1.98;;;;;;;;;;5026647;28;20064;-74
2023/08/05 12:08:02;;;;;;;2.85;2.05;;;;;;;;;;5043693;28;20038;-74
2023/08/05 12:10:29;;;;;;;4.93;2.30;;;;;;;;;;5039336;28;20123;-74
2023/08/05 12:12:56;;;;;;;3.60;2.40;;;;;;;;;;5027900;28;20033;-73
2023/08/05 12:15:26;;;;;;;6.57;2.38;;;;;;;;;;5028614;28;20071;-73
2023/08/05 12:18:02;;;;;;;4.05;2.53;;;;;;;;;;5027651;28;20026;-73
2023/08/05 12:20:29;;;;;;;3.55;2.28;;;;;;;;;;5027655;28;20407;-74
2023/08/05 12:22:58;;;;;;;4.75;2.10;;;;;;;;;;5026381;28;20479;-73
2023/08/05 12:25:24;;;;;;;3.22;2.22;;;;;;;;;;5028220;28;20029;-73
2023/08/05 12:27:50;;;;;;;4.00;2.60;;;;;;;;;;5025451;28;20025;-73
2023/08/05 12:30:17;;;;;;;4.93;1.98;;;;;;;;;;5027259;28;20033;-73
2023/08/05 12:32:43;;;;;;;7.18;2.65;;;;;;;;;;5026419;28;20364;-73
2023/08/05 12:35:09;;;;;;;5.47;2.40;;;;;;;;;;5028572;28;20463;-73
2023/08/05 12:37:36;;;;;;;4.97;2.20;;;;;;;;;;5027029;28;20037;-73
2023/08/05 12:40:06;;;;;;;4.13;2.47;;;;;;;;;;5027704;28;20022;-73
2023/08/05 12:42:33;;;;;;;3.55;2.05;;;;;;;;;;5025414;28;20383;-73
2023/08/05 12:45:03;;;;;;;4.65;2.33;;;;;;;;;;5027154;28;20368;-73
2023/08/05 12:47:29;;;;;;;5.18;2.17;;;;;;;;;;5028689;28;20017;-73
2023/08/05 12:49:55;;;;;;;4.40;2.13;;;;;;;;;;5028235;28;20053;-73
2023/08/05 12:52:21;;;;;;;4.00;2.67;;;;;;;;;;5026631;28;20061;-73
2023/08/05 12:54:47;;;;;;;4.25;2.40;;;;;;;;;;5025010;28;20458;-73
2023/08/05 12:57:13;;;;;;;3.45;2.30;;;;;;;;;;5025208;28;20029;-73
2023/08/05 12:59:39;;;;;;;6.03;2.30;;;;;;;;;;5028733;28;20068;-73
2023/08/05 13:02:05;;;;;;;4.40;2.50;;;;;;;;;;5024375;28;20053;-73
2023/08/05 13:04:31;;;;;;;6.20;2.85;;;;;;;;;;5038013;28;20033;-73
2023/08/05 13:06:57;;;;;;;5.95;2.88;;;;;;;;;;5009795;28;20033;-75
2023/08/05 13:09:23;;;;;;;4.75;2.50;;;;;;;;;;5025220;28;20060;-75
2023/08/05 13:11:49;;;;;;;5.63;2.30;;;;;;;;;;5025354;28;20327;-76
2023/08/05 13:14:15;;;;;;;3.08;2.17;;;;;;;;;;5025486;28;20044;-76
2023/08/05 13:16:41;;;;;;;6.03;2.63;;;;;;;;;;5026698;28;20083;-76
2023/08/05 13:19:07;;;;;;;6.45;2.90;;;;;;;;;;5020780;28;20121;-74
2023/08/05 13:21:34;;;;;;;5.25;2.70;;;;;;;;;;5026431;28;20037;-74
2023/08/05 13:24:03;;;;;;;5.97;2.15;;;;;;;;;;5027166;28;20029;-73
2023/08/05 13:26:30;;;;;;;5.68;3.10;;;;;;;;;;5027456;28;20056;-72
2023/08/05 13:28:56;;;;;;;28.02;19.73;;;;;;;;;;5026941;28;20030;-76
2023/08/05 13:31:23;;;;;;;5.05;3.75;;;;;;;;;;5024568;28;20053;-74
2023/08/05 13:33:50;;;;;;;5.32;3.30;;;;;;;;;;5027051;28;20029;-75
2023/08/05 13:36:16;;;;;;;3.67;2.58;;;;;;;;;;5024894;28;20277;-74
2023/08/05 13:38:42;;;;;;;1.70;1.40;;;;;;;;;;5030357;28;20423;-74
2023/08/05 13:41:08;;;;;;;3.28;1.45;;;;;;;;;;5023836;28;20041;-74
2023/08/05 13:43:34;;;;;;;1.77;1.30;;;;;;;;;;5026315;28;20368;-73
2023/08/05 13:46:03;;;;;;;1.83;1.10;;;;;;;;;;5028816;28;20041;-73
2023/08/05 13:48:32;;;;;;;7.25;1.95;;;;;;;;;;5021638;28;20025;-76
2023/08/05 13:51:05;;;;;;;11.45;2.47;;;;;;;;;;5027055;28;20046;-75
2023/08/05 13:53:32;;;;;;;5.03;1.48;;;;;;;;;;5027492;28;20036;-76
2023/08/05 13:55:59;;;;;;;10.75;2.80;;;;;;;;;;5029866;28;20416;-76
2023/08/05 13:58:25;;;;;;;19.90;2.45;;;;;;;;;;5008994;28;20506;-78
2023/08/05 14:00:51;;;;;;;4.47;1.90;;;;;;;;;;5016724;28;20041;-77
2023/08/05 14:03:17;;;;;;;4.78;1.80;;;;;;;;;;5028514;28;20080;-75
2023/08/05 14:05:43;;;;;;;4.70;1.85;;;;;;;;;;5030744;28;20037;-75
2023/08/05 14:08:09;;;;;;;3.90;2.28;;;;;;;;;;5028801;28;20029;-76
2023/08/05 14:10:35;;;;;;;4.30;2.17;;;;;;;;;;5029089;28;20418;-76
2023/08/05 14:13:01;;;;;;;7.68;2.88;;;;;;;;;;5030538;28;20034;-75
2023/08/05 14:15:28;;;;;;;3.55;2.35;;;;;;;;;;5045972;28;20406;-76
2023/08/05 14:17:54;;;;;;;5.22;2.55;;;;;;;;;;5023523;28;20029;-76
2023/08/05 14:20:20;;;;;;;3.20;2.60;;;;;;;;;;5028525;28;20061;-76
2023/08/05 14:22:46;;;;;;;3.55;2.55;;;;;;;;;;5029827;28;20526;-75
2023/08/05 14:25:12;;;;;;;4.25;2.88;;;;;;;;;;5032056;28;20036;-75
2023/08/05 14:27:38;;;;;;;4.20;2.58;;;;;;;;;;5030091;28;20572;-75
2023/08/05 14:30:05;;;;;;;3.30;2.72;;;;;;;;;;5030724;28;20029;-74
2023/08/05 14:32:31;;;;;;;4.80;3.05;;;;;;;;;;5027623;28;20521;-75
2023/08/05 14:34:57;;;;;;;5.82;3.40;;;;;;;;;;5025214;28;20494;-74
2023/08/05 14:37:23;;;;;;;4.85;3.20;;;;;;;;;;5021381;28;20167;-75